Latest Coastal Weather Observations for Cape Leeuwin

IDW60701

Issued at 2:53 pm WST Friday 26 August 2016 (issued every 10 minutes, with the page automatically refreshed every 10 minutes)

About coastal observations | Map of coastal stations | Coastal observations for WA | Marine services | Other Formats
Station Details ID: 009518 Name: CAPE LEEUWIN Lat: -34.37 Lon: 115.14 Height: 13.0 m
Data from the previous 72 hours. | See also: Recent months at Cape Leeuwin
Date/Time
WST
Temp
°C
Wind Pressure Rain since
9am
mm
Weather Cloud Vis
km
Sea
Height
m
Swell
Dir  Spd
kts
Gust
kts
hPa Trend Height
m
Period
s
Dir
26/02:41pm 16.1 N 21 31 1003.3 - 0.2 - - - - - - -
26/02:30pm 17.0 N 20 27 1003.1 - 0.0 - - - - - - -
26/02:02pm 18.3 NNW 19 29 1003.6 - 0.0 - - - - - - -
26/02:00pm 18.3 NNW 18 24 1003.6 - 0.0 - - - - - - -
26/01:59pm 18.3 N 18 28 1003.7 - 0.0 - - - - - - -
26/01:30pm 19.6 N 17 25 1003.8 - 0.0 - - - - - - -
26/01:09pm 19.8 N 15 26 1004.0 - 0.0 - - - - - - -
26/01:00pm 20.2 N 14 22 1004.2 - 0.0 - - - - - - -
26/12:30pm 19.8 N 16 23 1005.3 - 0.0 - - - - - - -
26/12:00pm 20.6 N 15 21 1005.7 - 0.0 - - - - - - -
26/11:30am 19.8 N 16 25 1006.4 - 0.0 - - - - - - -
26/11:00am 19.7 N 15 24 1006.8 - 0.0 - - - - - - -
26/10:30am 18.8 NNE 18 25 1007.3 - 0.0 - - - - - - -
26/10:00am 18.2 NNE 18 24 1007.6 - 0.0 - - - - - - -
26/09:42am 17.7 NNE 15 25 1008.1 - 0.0 - - - - - - -
26/09:30am 17.4 NNE 18 25 1008.4 - 0.0 - - - - - - -
26/09:13am 16.7 NNE 19 29 1008.4 - 0.0 - - - - - - -
26/09:00am 16.5 NNE 18 27 1008.7 - 0.0 - - - - - - -
26/08:50am 16.3 NNE 19 29 1008.8 - 0.0 - - - - - - -
26/08:30am 15.9 NNE 19 27 1009.1 - 0.0 - - - - - - -
26/08:00am 15.2 N 19 29 1009.5 - 0.0 - - - - - - -
26/07:56am 15.0 N 19 29 1009.6 - 0.0 - - - - - - -
26/07:30am 14.2 NNE 17 26 1009.3 - 0.0 - - - - - - -
26/07:00am 14.3 NNE 16 23 1009.6 - 0.0 - - - - - - -
26/06:30am 14.3 NNE 18 29 1010.1 - 0.0 - - - - - - -
26/06:06am 14.6 NNE 17 27 1010.6 - 0.0 - - - - - - -
26/06:00am 14.4 NNE 16 23 1010.7 - 0.0 - - - - - - -
26/05:30am 14.5 NNE 18 27 1010.7 - 0.0 - - - - - - -
26/05:00am 13.7 NNE 17 25 1010.7 - 0.0 - - - - - - -
26/04:30am 12.9 NNE 17 22 1011.0 - 0.0 - - - - - - -
26/04:00am 13.3 NNE 18 26 1011.3 - 0.0 - - - - - - -
26/03:30am 12.4 NE 17 21 1011.6 - 0.0 - - - - - - -
26/03:00am 12.2 NE 14 17 1012.1 - 0.0 - - - - - - -
26/02:30am 11.4 NE 15 17 1013.0 - 0.0 - - - - - - -
26/02:00am 11.4 NE 14 17 1013.9 - 0.0 - - - - - - -
26/01:30am 10.7 NE 14 17 1014.2 - 0.0 - - - - - - -
26/01:00am 10.8 ENE 15 16 1014.7 - 0.0 - - - - - - -
26/12:30am 10.8 ENE 14 16 1015.2 - 0.0 - - - - - - -
26/12:00am 11.0 NE 13 16 1015.8 - 0.0 - - - - - - -
 
Date/Time
WST
Temp
°C
Wind Pressure Rain since
9am
mm
Weather Cloud Vis
km
Sea
Height
m
Swell
Dir  Spd
kts
Gust
kts
hPa Trend Height
m
Period
s
Dir
25/11:30pm 11.0 NE 12 15 1016.5 - 0.0 - - - - - - -
25/11:00pm 11.3 NE 13 15 1016.8 - 0.0 - - - - - - -
25/10:30pm 11.7 NE 14 18 1017.3 - 0.0 - - - - - - -
25/10:00pm 12.3 NNE 13 15 1018.1 - 0.0 - - - - - - -
25/09:30pm 11.8 NNE 13 14 1018.2 - 0.0 - - - - - - -
25/09:00pm 12.3 NE 7 9 1018.6 - 0.0 - - - - - - -
25/08:30pm 12.4 ENE 5 6 1018.8 - 0.0 - - - - - - -
25/08:00pm 12.8 ENE 4 5 1018.9 - 0.0 - - - - - - -
25/07:30pm 14.3 ESE 8 10 1018.9 - 0.0 - - - - - - -
25/07:00pm 14.6 ESE 8 9 1018.9 - 0.0 - - - - - - -
25/06:30pm 14.5 SE 7 8 1019.1 - 0.0 - - - - - - -
25/06:00pm 14.5 SE 9 11 1018.6 - 0.0 - - - - - - -
25/05:30pm 15.0 SE 9 11 1018.6 - 0.0 - - - - - - -
25/05:00pm 15.7 SSE 7 9 1018.7 - 0.0 - - - - - - -
25/04:30pm 16.9 WSW 7 7 1018.8 - 0.0 - - - - - - -
25/04:00pm 16.9 WSW 6 8 1019.1 - 0.0 - - - - - - -
25/03:30pm 17.0 SSW 7 9 1019.4 - 0.0 - - - - - - -
25/03:00pm 17.1 W 9 11 1019.5 - 0.0 - - - - - - -
25/02:30pm 17.0 W 9 11 1019.7 - 0.0 - - - - - - -
25/02:00pm 17.8 NNW 8 14 1020.1 - 0.0 - - - - - - -
25/01:30pm 17.4 NNW 6 11 1020.7 - 0.0 - - - - - - -
25/01:00pm 17.9 N 9 17 1021.3 - 0.0 - - - - - - -
25/12:30pm 17.5 N 8 13 1022.1 - 0.0 - - - - - - -
25/12:00pm 16.6 NNE 9 12 1022.7 - 0.0 - - - - - - -
25/11:30am 15.3 NNE 13 17 1023.2 - 0.0 - - - - - - -
25/11:00am 14.3 NE 14 18 1023.8 - 0.0 - - - - - - -
25/10:30am 13.2 NE 16 21 1024.2 - 0.0 - - - - - - -
25/10:00am 11.8 NE 17 22 1024.4 - 0.0 - - - - - - -
25/09:30am 11.4 NE 17 25 1024.7 - 0.0 - - - - - - -
25/09:00am 10.9 NE 15 19 1025.0 - 0.0 - - - - - - -
25/08:30am 10.2 ENE 13 16 1025.2 - 0.0 - - - - - - -
25/08:00am 9.2 ENE 12 14 1025.3 - 0.0 - - - - - - -
25/07:30am 8.8 ENE 11 13 1025.2 - 0.0 - - - - - - -
25/07:00am 8.5 ENE 12 15 1024.9 - 0.0 - - - - - - -
25/06:30am 8.6 ENE 12 14 1024.9 - 0.0 - - - - - - -
25/06:00am 8.9 ENE 14 16 1024.8 - 0.0 - - - - - - -
25/05:30am 9.2 ENE 15 17 1024.8 - 0.0 - - - - - - -
25/05:00am 9.9 ENE 16 19 1024.6 - 0.0 - - - - - - -
25/04:30am 10.5 ENE 18 22 1024.3 - 0.0 - - - - - - -
25/04:00am 10.3 ENE 16 18 1024.4 - 0.0 - - - - - - -
25/03:30am 9.3 ENE 14 16 1024.5 - 0.0 - - - - - - -
25/03:00am 9.0 NE 13 16 1024.8 - 0.0 - - - - - - -
25/02:30am 9.2 NE 15 17 1024.7 - 0.0 - - - - - - -
25/02:00am 8.7 NE 14 17 1024.9 - 0.0 - - - - - - -
25/01:30am 9.1 NE 14 17 1025.3 - 0.0 - - - - - - -
25/01:00am 9.9 ENE 15 18 1025.3 - 0.0 - - - - - - -
25/12:30am 10.3 ENE 15 18 1025.5 - 0.0 - - - - - - -
25/12:00am 9.6 NE 12 14 1025.8 - 0.0 - - - - - - -
 
Date/Time
WST
Temp
°C
Wind Pressure Rain since
9am
mm
Weather Cloud Vis
km
Sea
Height
m
Swell
Dir  Spd
kts
Gust
kts
hPa Trend Height
m
Period
s
Dir
24/11:30pm 10.2 NE 9 11 1026.1 - 0.0 - - - - - - -
24/11:00pm 11.5 ENE 12 14 1026.0 - 0.0 - - - - - - -
24/10:30pm 12.0 ENE 12 15 1026.1 - 0.0 - - - - - - -
24/10:00pm 12.7 ENE 13 17 1026.1 - 0.0 - - - - - - -
24/09:30pm 13.8 E 15 17 1026.2 - 0.0 - - - - - - -
24/09:00pm 14.0 E 19 22 1026.0 - 0.0 - - - - - - -
24/08:30pm 14.2 ESE 20 23 1025.8 - 0.0 - - - - - - -
24/08:00pm 14.3 ESE 19 22 1025.8 - 0.0 - - - - - - -
24/07:30pm 14.3 ESE 17 20 1026.0 - 0.0 - - - - - - -
24/07:00pm 14.1 SE 17 22 1025.9 - 0.0 - - - - - - -
24/06:30pm 14.0 ESE 17 21 1025.6 - 0.0 - - - - - - -
24/06:00pm 13.9 ESE 15 21 1025.5 - 0.0 - - - - - - -
24/05:30pm 13.8 SE 16 19 1025.4 - 0.0 - - - - - - -
24/05:00pm 13.8 SE 14 17 1025.3 - 0.0 - - - - - - -
24/04:30pm 14.0 SE 13 16 1025.3 - 0.0 - - - - - - -
24/04:00pm 14.3 SE 11 15 1025.2 - 0.0 - - - - - - -
24/03:30pm 14.5 SE 11 14 1025.3 - 0.0 - - - - - - -
24/03:00pm 14.8 SE 11 14 1025.2 - 0.0 - - - - - - -
24/02:30pm 14.9 SE 9 12 1025.4 - 0.0 - - - - - - -
24/02:00pm 14.6 SE 9 12 1025.6 - 0.0 - - - - - - -
24/01:30pm 14.8 SE 7 9 1025.8 - 0.0 - - - - - - -
24/01:00pm 14.9 SE 7 9 1026.1 - 0.0 - - - - - - -
24/12:30pm 14.1 ESE 7 8 1026.5 - 0.0 - - - - - - -
24/12:00pm 14.5 ESE 6 8 1027.1 - 0.0 - - - - - - -
24/11:30am 14.2 ENE 5 9 1027.3 - 0.0 - - - - - - -
24/11:00am 13.8 N 8 12 1027.5 - 0.0 - - - - - - -
24/10:30am 13.3 NNE 10 14 1027.4 - 0.0 - - - - - - -
24/10:00am 12.2 NNE 11 16 1027.5 - 0.0 - - - - - - -
24/09:30am 11.5 NNE 12 17 1027.4 - 0.0 - - - - - - -
24/09:00am 10.1 NNE 14 17 1027.3 - 0.0 - - - - - - -
24/08:30am 9.2 NNE 15 19 1027.1 - 0.0 - - - - - - -
24/08:00am 8.4 NNE 15 19 1026.8 - 0.0 - - - - - - -
24/07:30am 7.5 NNE 15 18 1026.6 - 0.0 - - - - - - -
24/07:00am 7.1 NNE 15 19 1026.3 - 0.0 - - - - - - -
24/06:30am 7.4 NNE 16 19 1026.0 - 0.0 - - - - - - -
24/06:00am 7.5 NNE 16 19 1025.9 - 0.0 - - - - - - -
24/05:30am 7.6 NNE 16 19 1025.7 - 0.0 - - - - - - -
24/05:00am 7.8 NE 15 20 1025.6 - 0.0 - - - - - - -
24/04:30am 8.0 NNE 15 19 1025.5 - 0.0 - - - - - - -
24/04:00am 8.0 NNE 16 19 1025.5 - 0.0 - - - - - - -
24/03:30am 8.4 NE 17 21 1025.4 - 0.0 - - - - - - -
24/03:00am 8.6 NE 16 20 1025.3 - 0.0 - - - - - - -
24/02:30am 8.6 NE 16 20 1025.5 - 0.0 - - - - - - -
24/02:00am 8.4 NE 13 18 1025.5 - 0.0 - - - - - - -
24/01:30am 8.7 NE 13 17 1025.6 - 0.0 - - - - - - -
24/01:00am 8.7 NE 12 16 1025.7 - 0.0 - - - - - - -
24/12:30am 8.9 NE 11 14 1025.6 - 0.0 - - - - - - -
24/12:00am 9.7 ENE 10 12 1025.5 - 0.0 - - - - - - -
 
Date/Time
WST
Temp
°C
Wind Pressure Rain since
9am
mm
Weather Cloud Vis
km
Sea
Height
m
Swell
Dir  Spd
kts
Gust
kts
hPa Trend Height
m
Period
s
Dir
23/11:30pm 10.9 ENE 11 14 1025.5 - 0.0 - - - - - - -
23/11:00pm 12.1 E 16 19 1025.5 - 0.0 - - - - - - -
23/10:30pm 12.4 E 16 19 1025.5 - 0.0 - - - - - - -
23/10:00pm 12.8 E 18 21 1025.6 - 0.0 - - - - - - -
23/09:30pm 13.2 E 17 21 1025.7 - 0.0 - - - - - - -
23/09:00pm 13.4 ESE 15 17 1025.7 - 0.0 - - - - - - -
23/08:30pm 13.4 ESE 14 18 1025.6 - 0.0 - - - - - - -
23/08:00pm 13.6 ESE 13 17 1025.4 - 0.0 - - - - - - -
23/07:30pm 13.3 SE 12 17 1025.3 - 0.0 - - - - - - -
23/07:00pm 13.1 ESE 12 15 1025.1 - 0.0 - - - - - - -
23/06:30pm 13.1 SE 11 14 1024.8 - 0.0 - - - - - - -
23/06:00pm 13.2 SE 11 14 1024.7 - 0.0 - - - - - - -
23/05:30pm 13.3 SE 10 14 1024.4 - 0.0 - - - - - - -
23/05:00pm 13.9 SE 11 15 1024.2 - 0.0 - - - - - - -
23/04:30pm 14.3 SE 11 13 1023.9 - 0.0 - - - - - - -
23/04:00pm 14.5 SE 11 15 1023.9 - 0.0 - - - - - - -
23/03:30pm 14.7 SE 11 15 1023.9 - 0.0 - - - - - - -
23/03:00pm 14.7 SE 11 14 1024.1 - 0.0 - - - - - - -

Other Formats:

Comma delimited format used in spreadsheet applications
http://www.bom.gov.au/fwo/IDW60701/IDW60701.94601.axf

JavaScript Object Notation format (JSON) in row-major order
http://www.bom.gov.au/fwo/IDW60701/IDW60701.94601.json